Time;durP1;ratioP1;P1;durP2;ratioP2;P2;SDS_P1;SDS_P2;PMS_P1;PMS_P2;Temp;Humidity;BMP_temperature;BMP_pressure;BME280_temperature;BME280_humidity;BME280_pressure;Samples;Min_cycle;Max_cycle;Signal;HPM_P1;HPM_P2
2021/12/23 00:00:12;;;;;;;73.82;38.65;;;4.20;99.90;;;;;;4986667;28;20046;-71
2021/12/23 00:02:40;;;;;;;67.82;36.28;;;4.20;99.90;;;;;;4988215;28;20356;-72
2021/12/23 00:05:10;;;;;;;63.03;29.85;;;4.20;99.90;;;;;;4987730;28;20050;-72
2021/12/23 00:07:38;;;;;;;76.15;37.05;;;4.20;99.90;;;;;;4988006;28;20514;-75
2021/12/23 00:10:07;;;;;;;65.57;31.88;;;4.20;99.90;;;;;;4987922;28;20046;-71
2021/12/23 00:12:39;;;;;;;69.22;36.08;;;4.20;99.90;;;;;;5018883;28;20049;-71
2021/12/23 00:15:23;;;;;;;67.68;35.60;;;4.20;99.90;;;;;;4986415;28;20046;-73
2021/12/23 00:25:53;;;;;;;70.10;35.58;;;4.30;99.90;;;;;;4967118;28;20042;-71
2021/12/23 00:28:21;;;;;;;64.22;35.85;;;4.30;99.90;;;;;;4986345;28;20042;-72
2021/12/23 00:30:49;;;;;;;68.75;36.10;;;4.30;99.90;;;;;;5002289;28;20077;-74
2021/12/23 00:33:17;;;;;;;;;;;4.30;99.90;;;;;;4985693;28;20050;-73
2021/12/23 00:35:44;;;;;;;69.72;35.40;;;4.30;99.90;;;;;;4987412;28;19926;-71
2021/12/23 00:38:19;;;;;;;65.80;33.58;;;4.40;99.90;;;;;;4985768;28;20398;-71
2021/12/23 00:40:47;;;;;;;67.15;34.95;;;4.30;99.90;;;;;;4985625;28;20053;-72
2021/12/23 00:43:15;;;;;;;64.80;33.97;;;4.40;99.90;;;;;;4969701;28;20050;-74
2021/12/23 00:45:43;;;;;;;67.85;32.90;;;4.40;99.90;;;;;;4985340;28;20058;-73
2021/12/23 00:48:11;;;;;;;63.58;32.42;;;4.40;99.90;;;;;;4985734;28;20142;-72
2021/12/23 00:50:39;;;;;;;63.22;32.13;;;4.40;99.90;;;;;;4986590;28;20057;-71
2021/12/23 00:53:08;;;;;;;69.03;34.17;;;4.40;99.90;;;;;;5001442;28;20716;-74
2021/12/23 00:55:37;;;;;;;63.60;34.05;;;4.40;99.90;;;;;;5002002;28;20061;-73
2021/12/23 00:58:04;;;;;;;64.15;33.70;;;4.50;99.90;;;;;;4986659;28;20038;-72
2021/12/23 01:00:33;;;;;;;62.60;33.70;;;4.50;99.90;;;;;;5001424;28;20046;-72
2021/12/23 01:03:03;;;;;;;;;;;4.50;99.90;;;;;;4986174;28;20783;-73
2021/12/23 01:05:31;;;;;;;61.70;30.98;;;4.50;99.90;;;;;;5001373;28;19926;-72
2021/12/23 01:07:58;;;;;;;64.63;33.00;;;4.50;99.90;;;;;;4987883;28;20069;-72
2021/12/23 01:10:26;;;;;;;58.58;33.67;;;4.50;99.90;;;;;;4986873;28;20585;-75
2021/12/23 01:12:59;;;;;;;67.75;33.65;;;4.50;99.90;;;;;;5001422;28;20049;-73
2021/12/23 01:18:11;;;;;;;64.22;32.97;;;4.50;99.90;;;;;;4986895;28;20053;-74
2021/12/23 01:20:51;;;;;;;59.45;31.52;;;4.60;99.90;;;;;;4986234;28;20049;-72
2021/12/23 01:23:24;;;;;;;63.05;32.15;;;4.50;99.90;;;;;;4986358;28;20042;-71
2021/12/23 01:25:52;;;;;;;62.33;32.05;;;4.60;99.90;;;;;;4984756;28;20062;-73
2021/12/23 01:28:20;;;;;;;58.83;31.63;;;4.60;99.90;;;;;;4965363;28;20066;-74
2021/12/23 01:30:48;;;;;;;;;;;4.60;99.90;;;;;;4981963;28;20061;-72
2021/12/23 01:33:16;;;;;;;64.93;32.03;;;4.60;99.90;;;;;;5001142;28;19926;-72
2021/12/23 01:35:47;;;;;;;58.72;31.80;;;4.70;99.90;;;;;;4986505;28;20043;-73
2021/12/23 01:38:15;;;;;;;60.95;31.58;;;4.70;99.90;;;;;;5014386;28;20130;-74
2021/12/23 01:40:46;;;;;;;65.38;32.90;;;4.70;99.90;;;;;;4986002;28;20499;-74
2021/12/23 01:43:17;;;;;;;60.05;30.92;;;4.80;99.90;;;;;;4986193;28;20498;-72
2021/12/23 01:45:48;;;;;;;65.32;32.00;;;4.70;99.90;;;;;;4996684;28;20538;-73
2021/12/23 01:48:18;;;;;;;60.72;33.30;;;4.70;99.90;;;;;;4967269;28;20054;-75
2021/12/23 01:50:47;;;;;;;62.30;32.35;;;4.80;99.90;;;;;;4966754;28;20503;-72
2021/12/23 01:53:15;;;;;;;63.53;32.85;;;4.80;99.90;;;;;;4966567;28;20046;-72
2021/12/23 01:55:44;;;;;;;59.20;31.65;;;4.80;99.90;;;;;;4997805;28;20050;-71
2021/12/23 01:58:12;;;;;;;;;;;4.80;99.90;;;;;;4983687;28;20058;-72
2021/12/23 02:00:45;;;;;;;62.55;30.95;;;4.90;99.90;;;;;;4986218;28;19922;-73
2021/12/23 02:03:14;;;;;;;58.90;31.30;;;4.90;99.90;;;;;;4989091;28;20467;-73
2021/12/23 02:05:43;;;;;;;59.13;31.17;;;4.80;99.90;;;;;;4988928;28;20046;-72
2021/12/23 02:08:30;;;;;;;60.58;31.52;;;4.90;99.90;;;;;;4989527;28;20267;-71
2021/12/23 02:10:59;;;;;;;63.38;32.38;;;4.90;99.90;;;;;;4990125;28;20061;-73
2021/12/23 02:13:28;;;;;;;65.65;32.65;;;4.90;99.90;;;;;;4988080;28;20054;-74
2021/12/23 02:15:56;;;;;;;;;;;5.00;99.90;;;;;;4988862;28;20042;-71
2021/12/23 02:18:24;;;;;;;63.97;31.63;;;5.00;99.90;;;;;;4989450;28;20366;-74
2021/12/23 02:20:53;;;;;;;;;;;5.00;99.90;;;;;;4988896;28;20063;-73
2021/12/23 02:23:21;;;;;;;54.33;27.77;;;5.00;99.90;;;;;;4989582;28;19928;-72
2021/12/23 02:25:49;;;;;;;57.67;29.27;;;5.00;99.90;;;;;;5004081;28;20046;-74
2021/12/23 02:28:21;;;;;;;55.92;31.60;;;5.00;99.90;;;;;;4989511;28;20048;-71
2021/12/23 02:30:51;;;;;;;63.92;30.83;;;5.10;99.90;;;;;;5004710;28;20053;-72
2021/12/23 02:33:23;;;;;;;58.80;30.08;;;5.20;99.90;;;;;;4971736;28;20054;-72
2021/12/23 02:35:55;;;;;;;63.42;30.85;;;5.10;99.90;;;;;;4987953;28;20054;-75
2021/12/23 02:38:24;;;;;;;60.10;32.10;;;5.10;99.90;;;;;;4989066;28;20062;-74
2021/12/23 02:40:52;;;;;;;61.28;32.13;;;5.10;99.90;;;;;;4988701;28;20730;-75
2021/12/23 02:43:26;;;;;;;67.50;32.55;;;5.10;99.90;;;;;;5020137;28;20054;-74
2021/12/23 02:45:58;;;;;;;59.85;32.45;;;5.10;99.90;;;;;;4988502;28;20054;-75
2021/12/23 02:48:34;;;;;;;62.75;31.27;;;5.10;99.90;;;;;;4989318;28;20050;-75
2021/12/23 02:51:11;;;;;;;62.33;32.40;;;5.10;99.90;;;;;;4988084;28;20054;-72
2021/12/23 02:53:40;;;;;;;62.10;32.37;;;5.10;99.90;;;;;;4989256;28;20043;-75
2021/12/23 02:56:11;;;;;;;65.55;31.27;;;5.20;99.90;;;;;;4987263;28;20054;-73
2021/12/23 02:58:39;;;;;;;66.05;33.50;;;5.20;99.90;;;;;;4988105;28;20073;-73
2021/12/23 03:01:08;;;;;;;68.88;31.55;;;5.30;99.90;;;;;;4988183;28;20495;-74
2021/12/23 03:03:37;;;;;;;65.72;32.75;;;5.30;99.90;;;;;;4982357;28;20050;-73
2021/12/23 03:06:05;;;;;;;64.30;30.67;;;5.40;99.90;;;;;;5001594;28;20462;-74
2021/12/23 03:08:36;;;;;;;68.15;34.08;;;5.40;99.90;;;;;;4985336;28;20062;-74
2021/12/23 03:11:06;;;;;;;68.53;34.08;;;5.40;99.90;;;;;;4970436;28;20047;-74
2021/12/23 03:13:34;;;;;;;67.13;32.83;;;5.40;99.90;;;;;;4985250;28;20061;-73
2021/12/23 03:16:03;;;;;;;68.03;33.95;;;5.50;99.90;;;;;;4990954;28;20049;-74
2021/12/23 03:18:32;;;;;;;69.95;34.10;;;5.50;99.90;;;;;;4989579;28;20053;-75
2021/12/23 03:21:00;;;;;;;70.60;34.03;;;5.50;99.90;;;;;;4988318;28;20046;-72
2021/12/23 03:23:28;;;;;;;69.60;33.95;;;5.50;99.90;;;;;;4989086;28;20061;-74
2021/12/23 03:25:55;;;;;;;66.50;33.95;;;5.50;99.90;;;;;;4989145;28;20043;-75
2021/12/23 03:28:23;;;;;;;71.72;32.20;;;5.60;99.90;;;;;;4988097;28;20263;-75
2021/12/23 03:30:51;;;;;;;69.25;34.03;;;5.50;99.90;;;;;;4987517;28;20054;-75
2021/12/23 03:33:19;;;;;;;72.15;33.20;;;5.60;99.90;;;;;;4987830;28;20061;-75
2021/12/23 03:35:47;;;;;;;71.60;33.08;;;5.60;99.90;;;;;;5020022;28;20050;-73
2021/12/23 03:38:16;;;;;;;63.47;33.15;;;5.60;99.90;;;;;;4988475;28;20054;-75
2021/12/23 03:40:44;;;;;;;73.82;35.33;;;5.60;99.90;;;;;;4971673;28;20054;-75
2021/12/23 03:43:14;;;;;;;75.28;35.33;;;5.70;99.90;;;;;;4988304;28;20804;-74
2021/12/23 03:45:42;;;;;;;65.85;34.45;;;5.70;99.90;;;;;;5003333;28;20061;-74
2021/12/23 03:48:12;;;;;;;73.30;34.75;;;5.70;99.90;;;;;;4987726;28;20034;-73
2021/12/23 03:50:41;;;;;;;72.20;36.50;;;5.80;99.90;;;;;;5020580;28;20053;-74
2021/12/23 03:53:08;;;;;;;66.93;35.38;;;5.70;99.90;;;;;;4988586;28;20395;-74
2021/12/23 03:55:36;;;;;;;75.28;36.50;;;5.70;99.90;;;;;;4988677;28;20057;-75
2021/12/23 03:58:04;;;;;;;78.07;38.72;;;5.70;99.90;;;;;;4983022;28;20050;-72
2021/12/23 04:00:32;;;;;;;81.40;36.50;;;5.70;99.90;;;;;;4988609;28;20499;-74
2021/12/23 04:03:00;;;;;;;;;;;5.70;99.90;;;;;;4989012;28;20054;-75
2021/12/23 04:05:28;;;;;;;86.80;38.75;;;5.70;99.90;;;;;;4988061;28;20325;-72
2021/12/23 04:07:56;;;;;;;86.40;38.97;;;5.80;99.90;;;;;;4987164;28;20050;-71
2021/12/23 04:10:24;;;;;;;83.50;39.42;;;5.80;99.90;;;;;;5002784;28;20053;-71
2021/12/23 04:12:52;;;;;;;;;;;5.80;99.90;;;;;;4986560;28;20058;-71
2021/12/23 04:15:20;;;;;;;84.53;37.97;;;5.80;99.90;;;;;;4989031;28;19928;-73
2021/12/23 04:17:49;;;;;;;86.72;38.28;;;5.80;99.90;;;;;;4988240;28;20507;-71
2021/12/23 04:20:21;;;;;;;93.95;42.90;;;5.90;99.90;;;;;;5003415;28;20093;-74
2021/12/23 04:22:52;;;;;;;96.90;42.55;;;5.90;99.90;;;;;;5019761;28;20054;-74
2021/12/23 04:25:23;;;;;;;93.30;40.60;;;5.90;99.90;;;;;;4987793;28;20050;-72
2021/12/23 04:27:53;;;;;;;94.07;40.97;;;5.90;99.90;;;;;;5019178;28;20388;-73
2021/12/23 04:30:22;;;;;;;100.70;43.60;;;6.00;99.90;;;;;;4986971;28;20654;-73
2021/12/23 04:32:50;;;;;;;95.55;43.85;;;6.00;99.90;;;;;;5018965;28;20054;-75
2021/12/23 04:35:17;;;;;;;95.15;43.92;;;6.00;99.90;;;;;;4987480;28;20073;-74
2021/12/23 04:37:45;;;;;;;103.35;43.80;;;6.00;99.90;;;;;;4988794;28;20403;-73
2021/12/23 04:40:14;;;;;;;93.03;40.80;;;6.00;99.90;;;;;;4987705;28;20058;-73
2021/12/23 04:42:42;;;;;;;94.55;43.05;;;6.10;99.90;;;;;;5002833;28;20048;-72
2021/12/23 04:45:10;;;;;;;98.47;43.92;;;6.10;99.90;;;;;;5002561;28;20522;-73
2021/12/23 04:47:39;;;;;;;93.60;43.75;;;6.10;99.90;;;;;;4987685;28;20046;-73
2021/12/23 04:50:09;;;;;;;;;;;6.10;99.90;;;;;;4988063;28;20050;-72
2021/12/23 04:52:37;;;;;;;90.45;40.38;;;6.10;99.90;;;;;;4987118;28;19932;-73
2021/12/23 04:55:06;;;;;;;98.50;38.17;;;6.10;99.90;;;;;;4987610;28;20065;-73
2021/12/23 04:57:34;;;;;;;102.53;43.38;;;6.20;99.90;;;;;;4986063;28;20046;-71
2021/12/23 05:00:09;;;;;;;97.00;41.83;;;6.20;99.90;;;;;;5002440;28;20065;-73
2021/12/23 05:02:36;;;;;;;101.00;41.80;;;6.20;99.90;;;;;;4986817;28;20043;-72
2021/12/23 05:05:05;;;;;;;110.22;46.45;;;6.20;99.90;;;;;;5002373;28;20045;-74
2021/12/23 05:07:34;;;;;;;110.28;44.22;;;6.20;99.90;;;;;;4986068;28;20046;-73
2021/12/23 05:10:02;;;;;;;99.55;44.35;;;6.20;99.90;;;;;;5018184;28;20053;-72
2021/12/23 05:12:29;;;;;;;;;;;6.30;99.90;;;;;;4969771;28;20051;-72
2021/12/23 05:14:57;;;;;;;118.50;46.05;;;6.30;99.90;;;;;;4982165;28;19925;-73
2021/12/23 05:17:24;;;;;;;103.93;43.85;;;6.30;99.90;;;;;;4967658;28;20089;-76
2021/12/23 05:19:52;;;;;;;107.50;46.13;;;6.30;99.90;;;;;;4967948;28;20766;-73
2021/12/23 05:22:20;;;;;;;112.00;46.10;;;6.30;99.90;;;;;;4967452;28;20054;-73
2021/12/23 05:24:48;;;;;;;115.07;47.50;;;6.40;99.90;;;;;;4967946;28;20065;-74
2021/12/23 05:27:16;;;;;;;114.88;44.75;;;6.40;99.90;;;;;;4977575;28;20490;-73
2021/12/23 05:29:44;;;;;;;123.45;46.65;;;6.40;99.90;;;;;;4987256;28;20048;-70
2021/12/23 05:32:11;;;;;;;119.50;46.78;;;6.40;99.90;;;;;;4985843;28;20495;-73
2021/12/23 05:34:39;;;;;;;124.25;48.33;;;6.50;99.90;;;;;;5001185;28;20406;-71
2021/12/23 05:37:07;;;;;;;120.47;46.95;;;6.40;99.90;;;;;;4989095;28;20053;-73
2021/12/23 05:39:35;;;;;;;112.38;47.10;;;6.50;99.90;;;;;;5005743;28;20054;-74
2021/12/23 05:42:03;;;;;;;121.13;43.40;;;6.50;99.90;;;;;;4990312;28;20577;-73
2021/12/23 05:44:31;;;;;;;116.90;43.92;;;6.50;99.90;;;;;;4989958;28;20050;-73
2021/12/23 05:46:59;;;;;;;107.97;44.85;;;6.50;99.90;;;;;;4989197;28;20116;-74
2021/12/23 05:49:26;;;;;;;117.32;46.60;;;6.60;99.90;;;;;;4989571;28;20051;-74
2021/12/23 05:51:54;;;;;;;104.78;45.03;;;6.60;99.90;;;;;;4989681;28;20053;-73
2021/12/23 05:54:23;;;;;;;116.28;45.50;;;6.60;99.90;;;;;;4988448;28;20074;-72
2021/12/23 05:56:50;;;;;;;111.18;43.50;;;6.60;99.90;;;;;;4990087;28;20042;-73
2021/12/23 05:59:18;;;;;;;112.97;45.03;;;6.70;99.90;;;;;;4972510;28;20057;-71
2021/12/23 06:01:46;;;;;;;103.82;45.20;;;6.70;99.90;;;;;;4989797;28;20050;-73
2021/12/23 06:04:14;;;;;;;102.03;41.85;;;6.70;99.90;;;;;;4990029;28;20050;-72
2021/12/23 06:06:42;;;;;;;113.25;42.75;;;6.80;99.90;;;;;;4988135;28;20053;-73
2021/12/23 06:09:10;;;;;;;113.45;44.70;;;6.80;99.90;;;;;;4989940;28;20789;-73
2021/12/23 06:11:37;;;;;;;111.15;46.55;;;6.80;99.90;;;;;;5004421;28;20049;-73
2021/12/23 06:14:05;;;;;;;103.78;44.55;;;6.80;99.90;;;;;;4989876;28;20054;-73
2021/12/23 06:16:33;;;;;;;119.63;45.88;;;6.80;99.90;;;;;;5021265;28;20050;-73
2021/12/23 06:19:01;;;;;;;98.32;42.78;;;6.80;99.90;;;;;;4989962;28;20082;-72
2021/12/23 06:21:30;;;;;;;99.20;43.30;;;6.80;99.90;;;;;;4989876;28;20483;-73
2021/12/23 06:23:59;;;;;;;107.78;43.63;;;6.80;99.90;;;;;;4988398;28;20046;-74
2021/12/23 06:26:27;;;;;;;104.88;45.03;;;6.90;99.90;;;;;;5020425;28;20062;-73
2021/12/23 06:28:54;;;;;;;110.60;43.47;;;6.90;99.90;;;;;;4989024;28;20054;-74
2021/12/23 06:31:22;;;;;;;106.88;45.42;;;6.90;99.90;;;;;;5003733;28;20054;-77
2021/12/23 06:33:51;;;;;;;106.20;43.92;;;6.90;99.90;;;;;;4988480;28;20080;-72
2021/12/23 06:36:18;;;;;;;;;;;7.00;99.90;;;;;;5021344;28;20050;-74
2021/12/23 06:38:46;;;;;;;104.35;39.30;;;7.00;99.90;;;;;;4988995;28;19936;-73
2021/12/23 06:41:16;;;;;;;99.15;42.30;;;6.90;99.90;;;;;;4972801;28;20131;-73
2021/12/23 06:43:45;;;;;;;105.18;43.60;;;7.00;99.90;;;;;;4988741;28;20058;-72
2021/12/23 06:46:13;;;;;;;;;;;7.00;99.90;;;;;;5004487;28;20360;-75
2021/12/23 06:48:41;;;;;;;100.47;40.83;;;7.10;99.90;;;;;;4987876;28;19926;-73
2021/12/23 06:51:08;;;;;;;92.22;39.58;;;7.10;99.90;;;;;;4989462;28;20050;-73
2021/12/23 06:53:37;;;;;;;101.18;42.50;;;7.10;99.90;;;;;;5003749;28;20058;-74
2021/12/23 06:56:04;;;;;;;94.57;41.00;;;7.10;99.90;;;;;;4988412;28;20061;-74
2021/12/23 06:58:33;;;;;;;97.88;42.08;;;7.10;99.90;;;;;;5003982;28;20053;-74
2021/12/23 07:01:01;;;;;;;93.05;40.10;;;7.20;99.90;;;;;;4987507;28;20046;-72
2021/12/23 07:03:44;;;;;;;92.47;41.38;;;7.20;99.90;;;;;;4988097;28;20130;-72
2021/12/23 07:06:18;;;;;;;96.05;41.95;;;7.20;99.90;;;;;;4989144;28;20384;-73
2021/12/23 07:08:45;;;;;;;96.55;39.40;;;7.20;99.90;;;;;;4988730;28;20046;-74
2021/12/23 07:11:13;;;;;;;99.93;40.78;;;7.20;99.90;;;;;;4987241;28;20050;-74
2021/12/23 07:13:41;;;;;;;100.53;42.00;;;7.30;99.90;;;;;;5019495;28;20051;-73
2021/12/23 07:16:09;;;;;;;94.18;42.08;;;7.30;99.90;;;;;;4984378;28;20058;-75
2021/12/23 07:18:37;;;;;;;90.07;41.65;;;7.30;99.90;;;;;;4987190;28;20050;-73
2021/12/23 07:21:04;;;;;;;88.85;41.67;;;7.30;99.90;;;;;;4987398;28;20047;-72
2021/12/23 07:23:32;;;;;;;98.20;42.80;;;7.30;99.90;;;;;;4984810;28;20038;-73
2021/12/23 07:26:00;;;;;;;89.65;40.92;;;7.30;99.90;;;;;;4985908;28;20050;-73
2021/12/23 07:28:29;;;;;;;77.18;37.65;;;7.30;99.90;;;;;;5019393;28;20376;-71
2021/12/23 07:30:57;;;;;;;89.13;40.17;;;7.30;99.90;;;;;;4988052;28;20046;-73
2021/12/23 07:33:25;;;;;;;82.55;35.35;;;7.30;99.90;;;;;;5003050;28;20458;-72
2021/12/23 07:35:53;;;;;;;91.10;41.35;;;7.30;99.90;;;;;;4988103;28;20065;-73
2021/12/23 07:38:21;;;;;;;;;;;7.40;99.90;;;;;;4979773;28;20050;-73
2021/12/23 07:40:50;;;;;;;87.38;38.95;;;7.40;99.90;;;;;;4981989;28;19933;-73
2021/12/23 07:43:31;;;;;;;87.68;40.67;;;7.40;99.90;;;;;;4994775;28;20041;-73
2021/12/23 07:46:03;;;;;;;80.60;38.35;;;7.40;99.90;;;;;;4998319;28;20367;-76
2021/12/23 07:48:32;;;;;;;78.10;36.30;;;7.30;99.90;;;;;;4971303;28;20059;-72
2021/12/23 07:51:00;;;;;;;;;;;7.40;99.90;;;;;;4999132;28;20049;-73
2021/12/23 07:53:29;;;;;;;78.18;37.65;;;7.40;99.90;;;;;;5007271;28;19925;-73
2021/12/23 07:55:56;;;;;;;81.82;38.25;;;7.40;99.90;;;;;;5014709;28;20058;-72
2021/12/23 07:58:24;;;;;;;75.07;35.20;;;7.50;99.90;;;;;;4995799;28;20046;-73
2021/12/23 08:00:52;;;;;;;83.95;40.47;;;7.50;99.90;;;;;;4983060;28;20046;-73
2021/12/23 08:03:20;;;;;;;81.32;37.85;;;7.40;99.90;;;;;;5018918;28;20055;-76
2021/12/23 08:05:48;;;;;;;81.88;39.65;;;7.50;99.90;;;;;;4982546;28;20074;-74
2021/12/23 08:08:16;;;;;;;82.07;39.42;;;7.50;99.90;;;;;;4992759;28;20300;-76
2021/12/23 08:10:44;;;;;;;82.60;40.85;;;7.50;99.90;;;;;;4987269;28;20071;-72
2021/12/23 08:13:15;;;;;;;84.32;39.55;;;7.50;99.90;;;;;;4985809;28;20042;-74
2021/12/23 08:15:43;;;;;;;85.88;39.17;;;7.50;99.90;;;;;;5018217;28;20046;-76
2021/12/23 08:18:10;;;;;;;78.35;38.72;;;7.50;99.90;;;;;;4985771;28;20047;-75
2021/12/23 08:20:38;;;;;;;83.13;39.75;;;7.50;99.90;;;;;;4987084;28;20509;-77
2021/12/23 08:23:07;;;;;;;84.85;38.65;;;7.50;99.90;;;;;;4985779;28;20395;-73
2021/12/23 08:25:35;;;;;;;79.30;39.53;;;7.50;99.90;;;;;;4986935;28;20058;-74
2021/12/23 08:28:03;;;;;;;85.72;39.60;;;7.50;99.90;;;;;;4986845;28;20435;-73
2021/12/23 08:30:34;;;;;;;84.07;39.30;;;7.50;99.90;;;;;;4985094;28;20096;-73
2021/12/23 08:33:02;;;;;;;79.35;39.05;;;7.60;99.90;;;;;;4985347;28;20069;-74
2021/12/23 08:35:30;;;;;;;78.72;38.30;;;7.60;99.90;;;;;;4986992;28;20475;-75
2021/12/23 08:37:58;;;;;;;79.28;39.35;;;7.60;99.90;;;;;;4982595;28;20057;-73
2021/12/23 08:40:28;;;;;;;87.63;38.92;;;7.60;99.90;;;;;;4966056;28;20047;-74
2021/12/23 08:42:57;;;;;;;77.20;39.08;;;7.60;99.90;;;;;;4967702;28;20514;-73
2021/12/23 08:45:26;;;;;;;80.10;38.13;;;7.60;99.90;;;;;;4967012;28;20050;-72
2021/12/23 08:47:57;;;;;;;71.95;38.05;;;7.60;99.90;;;;;;4971810;28;20545;-72
2021/12/23 08:50:27;;;;;;;73.10;38.13;;;7.70;99.90;;;;;;4980412;28;20049;-74
2021/12/23 08:52:59;;;;;;;79.53;36.30;;;7.70;99.90;;;;;;5008124;28;20062;-72
2021/12/23 08:55:31;;;;;;;77.30;36.58;;;7.70;99.90;;;;;;4984559;28;20054;-72
2021/12/23 08:58:03;;;;;;;71.97;36.08;;;7.70;99.90;;;;;;5000733;28;20057;-72
2021/12/23 09:00:34;;;;;;;79.25;36.63;;;7.70;99.90;;;;;;4978560;28;20051;-72
2021/12/23 09:03:05;;;;;;;75.13;34.25;;;7.80;99.90;;;;;;4984348;28;20625;-71
2021/12/23 09:05:35;;;;;;;72.93;35.92;;;7.80;99.90;;;;;;4978435;28;20073;-72
2021/12/23 09:08:05;;;;;;;70.20;36.28;;;7.80;99.90;;;;;;4982908;28;20594;-77
2021/12/23 09:10:33;;;;;;;72.20;35.10;;;7.80;99.90;;;;;;4985249;28;20042;-74
2021/12/23 09:13:02;;;;;;;71.88;36.38;;;7.80;99.90;;;;;;4966175;28;20047;-76
2021/12/23 09:15:30;;;;;;;70.75;35.88;;;7.80;99.90;;;;;;4984463;28;20501;-78
2021/12/23 09:17:58;;;;;;;73.97;37.47;;;7.90;99.90;;;;;;4968450;28;20065;-76
2021/12/23 09:20:26;;;;;;;71.55;35.05;;;7.90;99.90;;;;;;4982062;28;20760;-82
2021/12/23 09:22:54;;;;;;;75.40;36.60;;;7.90;99.90;;;;;;4985148;28;20057;-74
2021/12/23 09:25:29;;;;;;;72.32;36.25;;;7.90;99.90;;;;;;4997258;28;20118;-72
2021/12/23 09:33:44;;;;;;;63.28;32.83;;;8.00;99.90;;;;;;4985805;28;20046;-71
2021/12/23 09:36:13;;;;;;;66.40;34.88;;;8.10;99.90;;;;;;4986263;28;20061;-74
2021/12/23 09:38:41;;;;;;;67.93;35.53;;;8.10;99.90;;;;;;4985121;28;20042;-76
2021/12/23 09:41:16;;;;;;;65.80;35.30;;;8.10;99.90;;;;;;4984684;28;20054;-76
2021/12/23 09:43:45;;;;;;;69.03;35.10;;;8.20;99.90;;;;;;4997399;28;20066;-75
2021/12/23 09:46:16;;;;;;;66.72;34.42;;;8.20;99.90;;;;;;4980999;28;20054;-76
2021/12/23 09:48:45;;;;;;;62.63;33.95;;;8.30;99.90;;;;;;4965655;28;20511;-76
2021/12/23 09:51:17;;;;;;;64.10;33.88;;;8.30;99.90;;;;;;4981664;28;20518;-78
2021/12/23 09:53:55;;;;;;;62.10;31.58;;;8.30;99.90;;;;;;4982393;28;20047;-77
2021/12/23 09:56:23;;;;;;;;;;;8.40;99.90;;;;;;4966332;28;20060;-74
2021/12/23 09:58:51;;;;;;;52.92;27.75;;;8.40;99.90;;;;;;4965396;28;19949;-76
2021/12/23 10:01:18;;;;;;;58.20;31.02;;;8.40;99.90;;;;;;4965438;28;20375;-77
2021/12/23 10:03:46;;;;;;;50.75;26.52;;;8.50;99.90;;;;;;4964963;28;20057;-76
2021/12/23 10:06:15;;;;;;;54.47;29.02;;;8.50;99.90;;;;;;4996491;28;20417;-77
2021/12/23 10:08:44;;;;;;;51.97;28.00;;;8.60;99.90;;;;;;4978470;28;20601;-76
2021/12/23 10:12:32;;;;;;;52.47;28.85;;;8.70;99.90;;;;;;4985075;28;20053;-75
2021/12/23 10:31:41;;;;;;;55.78;29.15;;;8.80;99.90;;;;;;4989762;28;20651;-75
2021/12/23 10:37:20;;;;;;;51.03;28.27;;;8.90;99.90;;;;;;4989607;28;20065;-77
2021/12/23 10:40:03;;;;;;;56.13;30.63;;;8.90;99.90;;;;;;4969118;28;20058;-74
2021/12/23 10:42:32;;;;;;;56.40;30.77;;;9.00;99.90;;;;;;4989663;28;20684;-76
2021/12/23 10:45:15;;;;;;;58.22;30.58;;;9.10;99.90;;;;;;4988750;28;20051;-77
2021/12/23 10:48:00;;;;;;;55.45;30.65;;;9.10;99.90;;;;;;4986454;28;20044;-75
2021/12/23 10:50:37;;;;;;;60.83;31.33;;;9.10;99.90;;;;;;4988498;28;20885;-76
2021/12/23 10:53:11;;;;;;;58.37;29.03;;;9.10;99.90;;;;;;4987377;28;20384;-73
2021/12/23 10:58:26;;;;;;;;;;;9.20;99.90;;;;;;4982122;28;20062;-76
2021/12/23 11:00:59;;;;;;;52.50;28.23;;;9.10;99.90;;;;;;5000135;28;19930;-74
2021/12/23 11:03:39;;;;;;;55.75;29.15;;;9.10;99.90;;;;;;4987862;28;20046;-76
2021/12/23 11:06:23;;;;;;;59.17;28.20;;;9.10;99.90;;;;;;4986485;28;20566;-85
2021/12/23 11:09:00;;;;;;;52.00;28.25;;;9.10;99.90;;;;;;4988188;28;20058;-76
2021/12/23 11:37:08;;;;;;;74.38;32.50;;;8.90;99.90;;;;;;5000216;28;20042;-74
2021/12/23 11:40:08;;;;;;;68.50;31.98;;;8.90;99.90;;;;;;4985265;28;20055;-74
2021/12/23 11:43:01;;;;;;;63.83;32.00;;;8.90;99.90;;;;;;4969467;28;20047;-74
2021/12/23 11:45:26;;;;;;;63.28;32.70;;;9.00;99.90;;;;;;4987177;28;20415;-73
2021/12/23 11:47:55;;;;;;;66.85;34.30;;;9.00;99.90;;;;;;5011351;28;20051;-75
2021/12/23 11:50:30;;;;;;;;;;;9.10;99.90;;;;;;4968700;28;20051;-73
2021/12/23 11:52:58;;;;;;;62.90;31.20;;;9.10;99.90;;;;;;4968174;28;19937;-73
2021/12/23 11:55:27;;;;;;;68.20;31.27;;;9.20;99.90;;;;;;4966449;28;20088;-73
2021/12/23 11:57:55;;;;;;;55.67;28.92;;;9.40;99.90;;;;;;4977243;28;20050;-73
2021/12/23 12:00:37;;;;;;;54.53;27.17;;;9.60;99.90;;;;;;4986032;28;20039;-73
2021/12/23 12:03:07;;;;;;;51.78;26.77;;;9.90;99.90;;;;;;5000829;28;20054;-73
2021/12/23 12:05:38;;;;;;;47.90;26.35;;;10.10;99.90;;;;;;5000320;28;20057;-75
2021/12/23 12:08:15;;;;;;;45.70;25.35;;;10.20;99.90;;;;;;4987668;28;20061;-73
2021/12/23 12:10:44;;;;;;;41.22;21.40;;;10.40;99.90;;;;;;4987475;28;20054;-73
2021/12/23 12:13:16;;;;;;;38.83;22.98;;;10.50;99.90;;;;;;5018996;28;20054;-73
2021/12/23 12:15:48;;;;;;;41.17;23.17;;;10.60;99.90;;;;;;5002366;28;20460;-73
2021/12/23 12:18:19;;;;;;;48.92;24.85;;;10.70;99.90;;;;;;5018300;28;20347;-75
2021/12/23 12:20:52;;;;;;;43.85;24.33;;;10.70;99.90;;;;;;4987466;28;20046;-74
2021/12/23 12:23:23;;;;;;;41.00;23.52;;;10.70;99.90;;;;;;4985141;28;20061;-74
2021/12/23 12:26:01;;;;;;;44.15;22.85;;;10.60;99.90;;;;;;4987452;28;20034;-75
2021/12/23 12:28:32;;;;;;;41.83;23.75;;;10.60;99.90;;;;;;4988763;28;20050;-76
2021/12/23 12:31:18;;;;;;;44.38;23.92;;;10.50;99.90;;;;;;4987174;28;20506;-73
2021/12/23 12:34:09;;;;;;;43.60;23.48;;;10.50;99.90;;;;;;4986144;28;20049;-73
2021/12/23 12:36:49;;;;;;;46.65;23.67;;;10.40;99.90;;;;;;4969707;28;20829;-74
2021/12/23 12:39:24;;;;;;;44.67;24.27;;;10.30;99.90;;;;;;4986659;28;20474;-73
2021/12/23 12:42:03;;;;;;;45.47;24.35;;;10.30;99.90;;;;;;4967791;28;20457;-74
2021/12/23 12:44:51;;;;;;;41.08;21.42;;;10.30;99.90;;;;;;4986349;28;20059;-73
2021/12/23 12:47:27;;;;;;;42.38;22.00;;;10.30;99.90;;;;;;4969893;28;20517;-73
2021/12/23 12:50:16;;;;;;;39.40;20.75;;;10.40;99.90;;;;;;4988088;28;20077;-75
2021/12/23 12:52:47;;;;;;;35.35;21.02;;;10.40;99.90;;;;;;4987172;28;20061;-74
2021/12/23 12:55:22;;;;;;;45.70;22.13;;;10.50;99.90;;;;;;4986696;28;20805;-74
2021/12/23 12:57:58;;;;;;;37.25;20.02;;;10.50;99.90;;;;;;4985868;28;20517;-74
2021/12/23 13:00:35;;;;;;;32.58;18.25;;;10.50;99.90;;;;;;5010683;28;20057;-76
2021/12/23 13:03:03;;;;;;;37.05;18.27;;;10.60;99.90;;;;;;4965489;28;20495;-74
2021/12/23 13:05:36;;;;;;;31.73;15.95;;;10.60;99.90;;;;;;4981251;28;20043;-76
2021/12/23 13:08:21;;;;;;;28.58;16.30;;;10.70;99.90;;;;;;4976158;28;20050;-75
2021/12/23 13:11:18;;;;;;;34.78;17.67;;;10.80;99.90;;;;;;5017951;28;20053;-77
2021/12/23 13:14:00;;;;;;;25.80;13.55;;;10.80;99.90;;;;;;5017838;28;20506;-75
2021/12/23 13:17:01;;;;;;;24.50;14.13;;;10.80;99.90;;;;;;4985424;28;20100;-76
2021/12/23 13:19:34;;;;;;;25.57;12.40;;;10.90;99.90;;;;;;5001843;28;20054;-74
2021/12/23 13:22:06;;;;;;;21.42;12.77;;;10.90;99.90;;;;;;4986228;28;20057;-75
2021/12/23 13:24:36;;;;;;;20.33;12.00;;;10.90;99.90;;;;;;4984130;28;20045;-75
2021/12/23 13:27:04;;;;;;;20.77;9.48;;;10.90;99.90;;;;;;4985771;28;20047;-75
2021/12/23 13:29:33;;;;;;;19.55;10.82;;;10.90;99.90;;;;;;5001052;28;20050;-73
2021/12/23 13:32:02;;;;;;;21.65;12.10;;;10.90;99.90;;;;;;4986540;28;20061;-75
2021/12/23 13:34:33;;;;;;;22.55;12.18;;;10.90;99.90;;;;;;5017703;28;20046;-75
2021/12/23 13:37:07;;;;;;;19.23;10.32;;;10.90;99.90;;;;;;5017479;28;20415;-75
2021/12/23 13:39:38;;;;;;;24.67;10.45;;;10.90;99.90;;;;;;4986600;28;20057;-73
2021/12/23 13:42:09;;;;;;;19.25;10.77;;;10.80;99.90;;;;;;4986405;28;20395;-73
2021/12/23 13:44:39;;;;;;;18.48;10.63;;;10.80;99.90;;;;;;5000569;28;20058;-73
2021/12/23 13:47:12;;;;;;;22.00;11.50;;;10.80;99.90;;;;;;4986190;28;20446;-74
2021/12/23 13:49:45;;;;;;;18.88;10.25;;;10.80;99.90;;;;;;5017156;28;20399;-74
2021/12/23 13:52:22;;;;;;;20.40;10.88;;;10.70;99.90;;;;;;4986119;28;20423;-73
2021/12/23 13:54:54;;;;;;;17.58;10.15;;;10.70;99.90;;;;;;4985914;28;20046;-74
2021/12/23 13:57:23;;;;;;;15.07;9.65;;;10.70;99.90;;;;;;4985669;28;20042;-72
2021/12/23 13:59:55;;;;;;;16.65;8.60;;;10.70;99.90;;;;;;4989416;28;20050;-74
2021/12/23 14:02:25;;;;;;;17.08;8.52;;;10.60;99.90;;;;;;4989080;28;20062;-72